Time;durP1;ratioP1;P1;durP2;ratioP2;P2;SDS_P1;SDS_P2;PMS_P1;PMS_P2;Temp;Humidity;BMP_temperature;BMP_pressure;BME280_temperature;BME280_humidity;BME280_pressure;Samples;Min_cycle;Max_cycle;Signal;HPM_P1;HPM_P2
2023/04/24 04:58:19;;;;;;;4.75;2.38;;;;;;;;;;5080475;28;20396;-81
2023/04/24 05:00:46;;;;;;;4.70;3.25;;;;;;;;;;5070765;28;20028;-81
2023/04/24 05:03:11;;;;;;;5.85;2.83;;;;;;;;;;5070213;28;20028;-80
2023/04/24 05:05:40;;;;;;;4.35;3.15;;;;;;;;;;5064853;28;20024;-80
2023/04/24 05:08:06;;;;;;;3.35;2.40;;;;;;;;;;5066889;28;20439;-80
2023/04/24 05:10:32;;;;;;;3.17;2.60;;;;;;;;;;5071817;28;20058;-80
2023/04/24 05:12:57;;;;;;;3.28;2.72;;;;;;;;;;5077332;28;20058;-79
2023/04/24 05:15:23;;;;;;;3.42;2.42;;;;;;;;;;5069554;28;20021;-79
2023/04/24 05:17:48;;;;;;;2.83;2.15;;;;;;;;;;5066563;28;20029;-79
2023/04/24 05:20:14;;;;;;;5.50;3.45;;;;;;;;;;5072873;28;20037;-79
2023/04/24 05:22:40;;;;;;;6.80;4.53;;;;;;;;;;5070551;28;20498;-80
2023/04/24 05:25:05;;;;;;;4.50;3.65;;;;;;;;;;5073857;28;20025;-80
2023/04/24 05:27:31;;;;;;;4.20;3.10;;;;;;;;;;5069568;28;20024;-80
2023/04/24 05:29:56;;;;;;;4.88;3.92;;;;;;;;;;5064750;28;20024;-79
2023/04/24 05:32:22;;;;;;;6.25;4.57;;;;;;;;;;5074589;28;20388;-80
2023/04/24 05:34:47;;;;;;;4.07;3.50;;;;;;;;;;5068371;28;20051;-79
2023/04/24 05:37:12;;;;;;;5.22;3.40;;;;;;;;;;5069896;28;20104;-80
2023/04/24 05:39:38;;;;;;;4.10;3.28;;;;;;;;;;5068896;28;20028;-80
2023/04/24 05:42:04;;;;;;;3.90;3.38;;;;;;;;;;5068550;28;20032;-81
2023/04/24 05:44:30;;;;;;;6.80;3.97;;;;;;;;;;5074248;28;20079;-80
2023/04/24 05:46:56;;;;;;;5.28;3.28;;;;;;;;;;5069617;28;20411;-80
2023/04/24 05:49:22;;;;;;;4.20;2.70;;;;;;;;;;5078667;28;20097;-81
2023/04/24 05:51:47;;;;;;;5.07;3.67;;;;;;;;;;5074502;28;20066;-82
2023/04/24 05:54:12;;;;;;;14.85;2.95;;;;;;;;;;5072015;28;20055;-80
2023/04/24 05:56:39;;;;;;;3.78;2.78;;;;;;;;;;5069607;28;20053;-80
2023/04/24 05:59:04;;;;;;;5.97;3.08;;;;;;;;;;5064002;28;20432;-83
2023/04/24 06:01:31;;;;;;;4.28;2.55;;;;;;;;;;5067738;28;20027;-79
2023/04/24 06:04:06;;;;;;;5.43;3.40;;;;;;;;;;5063937;28;20032;-85
2023/04/24 06:06:32;;;;;;;5.97;3.58;;;;;;;;;;5067632;28;20107;-82
2023/04/24 06:08:58;;;;;;;3.67;2.45;;;;;;;;;;5057608;28;20127;-81
2023/04/24 06:11:24;;;;;;;6.00;3.70;;;;;;;;;;5057602;28;20029;-80
2023/04/24 06:13:50;;;;;;;4.22;2.88;;;;;;;;;;5060565;28;20036;-81
2023/04/24 06:16:15;;;;;;;3.72;2.92;;;;;;;;;;5062744;28;20370;-81
2023/04/24 06:18:41;;;;;;;6.60;4.10;;;;;;;;;;5063120;28;20037;-80
2023/04/24 06:21:06;;;;;;;6.28;4.22;;;;;;;;;;5060174;28;20036;-79
2023/04/24 06:23:32;;;;;;;10.75;3.83;;;;;;;;;;5047430;28;20087;-78
2023/04/24 06:25:58;;;;;;;15.32;4.25;;;;;;;;;;5049923;28;20039;-79
2023/04/24 06:28:24;;;;;;;4.53;3.40;;;;;;;;;;5065273;28;20040;-78
2023/04/24 06:30:49;;;;;;;6.72;4.07;;;;;;;;;;5050627;28;20078;-79
2023/04/24 06:33:16;;;;;;;6.10;4.60;;;;;;;;;;5055379;28;20440;-78
2023/04/24 06:35:41;;;;;;;7.22;4.70;;;;;;;;;;5050326;28;20055;-79
2023/04/24 06:38:07;;;;;;;6.35;4.47;;;;;;;;;;5047615;28;20806;-79
2023/04/24 06:40:33;;;;;;;6.22;4.22;;;;;;;;;;5051092;28;20033;-79
2023/04/24 06:42:59;;;;;;;8.88;4.30;;;;;;;;;;5061044;28;20138;-79
2023/04/24 06:45:25;;;;;;;9.18;4.90;;;;;;;;;;5048302;28;20036;-78
2023/04/24 06:47:51;;;;;;;6.13;3.85;;;;;;;;;;5059827;28;20031;-79
2023/04/24 06:50:16;;;;;;;8.07;4.10;;;;;;;;;;5059871;28;20465;-79
2023/04/24 06:52:42;;;;;;;16.35;4.05;;;;;;;;;;5056644;28;20473;-79
2023/04/24 06:55:08;;;;;;;14.07;3.47;;;;;;;;;;5052507;28;20057;-78
2023/04/24 06:57:33;;;;;;;6.85;3.58;;;;;;;;;;5056589;28;20041;-78
2023/04/24 06:59:59;;;;;;;6.10;3.58;;;;;;;;;;5049986;28;20083;-79
2023/04/24 07:02:27;;;;;;;5.32;4.00;;;;;;;;;;5050351;28;20507;-80
2023/04/24 07:04:53;;;;;;;5.55;3.70;;;;;;;;;;5045237;28;20478;-79
2023/04/24 07:07:19;;;;;;;5.03;3.50;;;;;;;;;;5052394;28;20025;-77
2023/04/24 07:09:45;;;;;;;5.85;3.08;;;;;;;;;;5050010;28;20163;-80
2023/04/24 07:12:11;;;;;;;4.07;3.05;;;;;;;;;;5052225;28;20090;-79
2023/04/24 07:14:37;;;;;;;3.33;2.60;;;;;;;;;;5052114;28;20064;-79
2023/04/24 07:17:04;;;;;;;4.85;2.70;;;;;;;;;;5052001;28;20025;-79
2023/04/24 07:19:30;;;;;;;3.55;2.35;;;;;;;;;;5049497;28;20031;-80
2023/04/24 07:21:57;;;;;;;3.97;3.10;;;;;;;;;;5047827;28;20025;-80
2023/04/24 07:24:23;;;;;;;3.95;2.35;;;;;;;;;;5059298;28;20384;-81
2023/04/24 07:26:51;;;;;;;4.20;2.55;;;;;;;;;;5052413;28;20028;-79
2023/04/24 07:29:16;;;;;;;4.43;2.83;;;;;;;;;;5054870;28;20381;-80
2023/04/24 07:31:42;;;;;;;3.85;2.88;;;;;;;;;;5060514;28;20933;-80
2023/04/24 07:34:07;;;;;;;3.45;1.95;;;;;;;;;;5054699;28;20029;-79
2023/04/24 07:36:33;;;;;;;7.32;2.22;;;;;;;;;;5062459;28;20036;-79
2023/04/24 07:38:58;;;;;;;5.50;3.17;;;;;;;;;;5047734;28;20439;-79
2023/04/24 07:41:24;;;;;;;9.15;2.88;;;;;;;;;;5056347;28;20047;-79
2023/04/24 07:43:49;;;;;;;6.63;3.10;;;;;;;;;;5050637;28;20980;-79
2023/04/24 07:46:15;;;;;;;3.08;2.53;;;;;;;;;;5050771;28;20047;-79
2023/04/24 07:48:40;;;;;;;6.63;2.30;;;;;;;;;;5051320;28;20029;-80
2023/04/24 07:51:06;;;;;;;3.80;2.50;;;;;;;;;;5052248;28;20112;-82
2023/04/24 07:53:31;;;;;;;4.45;2.80;;;;;;;;;;5056873;28;20115;-78
2023/04/24 07:55:57;;;;;;;6.53;3.45;;;;;;;;;;5055827;28;20039;-79
2023/04/24 07:58:22;;;;;;;3.92;2.67;;;;;;;;;;5051087;28;20033;-79
2023/04/24 08:00:48;;;;;;;15.70;8.90;;;;;;;;;;5048664;28;20033;-79
2023/04/24 08:03:13;;;;;;;28.35;14.40;;;;;;;;;;5051165;28;21624;-82
2023/04/24 08:05:39;;;;;;;24.40;10.90;;;;;;;;;;5051649;28;20029;-79
2023/04/24 08:08:04;;;;;;;7.18;4.55;;;;;;;;;;5053468;28;20151;-80
2023/04/24 08:10:30;;;;;;;7.72;2.80;;;;;;;;;;5057174;28;20041;-79
2023/04/24 08:12:55;;;;;;;5.38;2.72;;;;;;;;;;5051459;28;20025;-79
2023/04/24 08:15:21;;;;;;;4.80;2.70;;;;;;;;;;5054092;28;20029;-80
2023/04/24 08:17:46;;;;;;;4.57;2.60;;;;;;;;;;5058452;28;20033;-79
2023/04/24 08:20:15;;;;;;;3.53;2.70;;;;;;;;;;5054520;28;20039;-79
2023/04/24 08:22:41;;;;;;;4.45;2.47;;;;;;;;;;5052467;28;20024;-78
2023/04/24 08:25:08;;;;;;;5.55;3.45;;;;;;;;;;5057263;28;20049;-80
2023/04/24 08:27:33;;;;;;;6.10;2.90;;;;;;;;;;5062287;28;20025;-79
2023/04/24 08:29:59;;;;;;;3.88;2.72;;;;;;;;;;5051123;28;20504;-81
2023/04/24 08:32:28;;;;;;;4.82;3.05;;;;;;;;;;5046764;28;20052;-78
2023/04/24 08:34:56;;;;;;;6.90;3.97;;;;;;;;;;5053929;28;20039;-79
2023/04/24 08:37:25;;;;;;;7.53;3.58;;;;;;;;;;5048570;28;20075;-80
2023/04/24 08:39:51;;;;;;;4.75;3.53;;;;;;;;;;5051981;28;20492;-79
2023/04/24 08:42:20;;;;;;;6.10;3.00;;;;;;;;;;5057547;28;20056;-79
2023/04/24 08:44:48;;;;;;;4.50;3.08;;;;;;;;;;5054760;28;20477;-80
2023/04/24 08:47:15;;;;;;;4.90;3.20;;;;;;;;;;5054705;28;20447;-79
2023/04/24 08:49:40;;;;;;;4.68;3.47;;;;;;;;;;5049135;28;20439;-80
2023/04/24 08:52:06;;;;;;;4.88;3.05;;;;;;;;;;5055938;28;20025;-79
2023/04/24 08:54:35;;;;;;;9.27;3.70;;;;;;;;;;5051121;28;20732;-79
2023/04/24 08:57:03;;;;;;;5.20;2.97;;;;;;;;;;5068680;28;20492;-79
2023/04/24 08:59:29;;;;;;;7.18;3.83;;;;;;;;;;5062586;28;20050;-81
2023/04/24 09:01:56;;;;;;;8.57;3.95;;;;;;;;;;5048108;28;20024;-80
2023/04/24 09:04:24;;;;;;;5.93;3.38;;;;;;;;;;5059321;28;20047;-79
2023/04/24 09:06:51;;;;;;;4.55;3.63;;;;;;;;;;5055549;28;20495;-79
2023/04/24 09:09:17;;;;;;;5.50;3.30;;;;;;;;;;5061045;28;20525;-80
2023/04/24 09:11:43;;;;;;;4.90;3.22;;;;;;;;;;5061609;28;20028;-79
2023/04/24 09:14:10;;;;;;;8.80;3.17;;;;;;;;;;5047388;28;20024;-80
2023/04/24 09:16:35;;;;;;;5.30;3.40;;;;;;;;;;5048382;28;20027;-80
2023/04/24 09:19:01;;;;;;;3.85;3.22;;;;;;;;;;5055886;28;20025;-81
2023/04/24 09:21:32;;;;;;;9.82;3.58;;;;;;;;;;5049846;28;20110;-79
2023/04/24 09:24:05;;;;;;;5.93;3.20;;;;;;;;;;5054693;28;20028;-81
2023/04/24 09:26:32;;;;;;;5.68;3.60;;;;;;;;;;5053997;28;20029;-80
2023/04/24 09:28:58;;;;;;;6.93;2.65;;;;;;;;;;5060654;28;20071;-80
2023/04/24 09:31:26;;;;;;;8.15;2.65;;;;;;;;;;5057555;28;20058;-80
2023/04/24 09:33:59;;;;;;;3.97;2.78;;;;;;;;;;5059193;28;20036;-81
2023/04/24 09:36:38;;;;;;;4.80;3.00;;;;;;;;;;5043826;28;20060;-81
2023/04/24 09:39:12;;;;;;;4.88;2.97;;;;;;;;;;5054756;28;20074;-80
2023/04/24 09:41:50;;;;;;;6.22;2.95;;;;;;;;;;5062420;28;20029;-80
2023/04/24 09:44:21;;;;;;;5.50;3.10;;;;;;;;;;5062861;28;20088;-79
2023/04/24 09:46:55;;;;;;;5.28;2.90;;;;;;;;;;5060349;28;20100;-84
2023/04/24 09:49:24;;;;;;;6.85;2.65;;;;;;;;;;5051994;28;20036;-81
2023/04/24 09:51:50;;;;;;;5.95;3.25;;;;;;;;;;5051503;28;20461;-81
2023/04/24 09:54:21;;;;;;;4.38;2.88;;;;;;;;;;5061421;28;20119;-80
2023/04/24 09:56:49;;;;;;;5.40;3.13;;;;;;;;;;5056443;28;20045;-81
2023/04/24 09:59:16;;;;;;;6.05;2.80;;;;;;;;;;5056687;28;20033;-80
2023/04/24 10:01:42;;;;;;;5.53;3.03;;;;;;;;;;5053029;28;20029;-80
2023/04/24 10:04:23;;;;;;;3.95;2.35;;;;;;;;;;5059120;28;20040;-80
2023/04/24 10:06:50;;;;;;;3.50;2.13;;;;;;;;;;5056493;28;20422;-81
2023/04/24 10:09:16;;;;;;;3.38;2.47;;;;;;;;;;5067259;28;20029;-81
2023/04/24 10:11:46;;;;;;;5.93;3.15;;;;;;;;;;5060473;28;20050;-80
2023/04/24 10:14:21;;;;;;;3.92;2.33;;;;;;;;;;5056977;28;20024;-81
2023/04/24 10:16:47;;;;;;;8.27;3.47;;;;;;;;;;5060703;28;20039;-78
2023/04/24 10:19:14;;;;;;;4.32;2.80;;;;;;;;;;5050227;28;20427;-81
2023/04/24 10:21:42;;;;;;;3.75;2.47;;;;;;;;;;5061335;28;20028;-80
2023/04/24 10:24:08;;;;;;;3.80;2.95;;;;;;;;;;5063422;28;20029;-80
2023/04/24 10:26:34;;;;;;;4.63;2.00;;;;;;;;;;5049914;28;20021;-80
2023/04/24 10:29:01;;;;;;;4.05;2.45;;;;;;;;;;5059499;28;20075;-79
2023/04/24 10:31:30;;;;;;;3.88;2.67;;;;;;;;;;5058511;28;20082;-79
2023/04/24 10:33:56;;;;;;;3.13;2.20;;;;;;;;;;5053081;28;20051;-79
2023/04/24 10:36:26;;;;;;;3.50;2.53;;;;;;;;;;5049967;28;20095;-80
2023/04/24 10:38:54;;;;;;;9.77;3.10;;;;;;;;;;5058162;28;20365;-80
2023/04/24 10:41:23;;;;;;;2.75;2.28;;;;;;;;;;5057598;28;20033;-79
2023/04/24 10:44:09;;;;;;;4.03;2.55;;;;;;;;;;5054957;28;20071;-79
2023/04/24 10:46:35;;;;;;;3.03;2.10;;;;;;;;;;5052465;28;20537;-80
2023/04/24 10:49:06;;;;;;;4.57;2.92;;;;;;;;;;5055167;28;20147;-82
2023/04/24 10:51:48;;;;;;;3.38;2.78;;;;;;;;;;5055664;28;20880;-80
2023/04/24 10:54:27;;;;;;;3.83;2.30;;;;;;;;;;5051157;28;20470;-79
2023/04/24 10:57:13;;;;;;;4.43;2.97;;;;;;;;;;5051780;28;20855;-79
2023/04/24 10:59:39;;;;;;;5.00;2.58;;;;;;;;;;5051232;28;20031;-80
2023/04/24 11:02:08;;;;;;;3.28;2.10;;;;;;;;;;5056480;28;20103;-80
2023/04/24 11:04:35;;;;;;;6.68;2.65;;;;;;;;;;5065333;28;20029;-81
2023/04/24 11:07:01;;;;;;;3.92;2.42;;;;;;;;;;5050668;28;20082;-79
2023/04/24 11:09:36;;;;;;;4.65;2.92;;;;;;;;;;5052252;28;20029;-80
2023/04/24 11:12:07;;;;;;;3.85;2.55;;;;;;;;;;5058172;28;20053;-80
2023/04/24 11:14:58;;;;;;;4.45;2.53;;;;;;;;;;5051319;28;20033;-80
2023/04/24 11:17:36;;;;;;;4.43;2.60;;;;;;;;;;5059514;28;20036;-80
2023/04/24 11:20:16;;;;;;;3.30;2.40;;;;;;;;;;5055470;28;20029;-80
2023/04/24 11:22:42;;;;;;;4.78;2.25;;;;;;;;;;5048651;28;20045;-80
2023/04/24 11:25:09;;;;;;;3.25;2.25;;;;;;;;;;5051275;28;20492;-79
2023/04/24 11:27:46;;;;;;;4.68;2.80;;;;;;;;;;5061044;28;20043;-83
2023/04/24 11:30:11;;;;;;;6.32;2.85;;;;;;;;;;5051430;28;20051;-80
2023/04/24 11:32:40;;;;;;;2.83;1.45;;;;;;;;;;5059649;28;20021;-82
2023/04/24 11:35:13;;;;;;;3.30;2.08;;;;;;;;;;5060003;28;20396;-80
2023/04/24 11:37:41;;;;;;;3.95;2.45;;;;;;;;;;5055020;28;20056;-80
2023/04/24 11:40:13;;;;;;;3.08;2.03;;;;;;;;;;5047528;28;20421;-82
2023/04/24 11:42:52;;;;;;;6.90;2.65;;;;;;;;;;5056324;28;20561;-82
2023/04/24 11:45:29;;;;;;;7.63;2.20;;;;;;;;;;5057134;28;20025;-80
2023/04/24 11:47:55;;;;;;;2.63;2.03;;;;;;;;;;5059102;28;20020;-81
2023/04/24 11:50:27;;;;;;;5.47;3.08;;;;;;;;;;5060093;28;20133;-80
2023/04/24 11:52:53;;;;;;;7.60;2.55;;;;;;;;;;5058427;28;20028;-80
2023/04/24 11:55:19;;;;;;;6.80;2.88;;;;;;;;;;5055689;28;20086;-84
2023/04/24 11:57:46;;;;;;;4.13;2.72;;;;;;;;;;5061506;28;20080;-81
2023/04/24 12:00:23;;;;;;;4.05;2.95;;;;;;;;;;5061629;28;20040;-82
2023/04/24 12:02:50;;;;;;;4.65;2.50;;;;;;;;;;5056377;28;20029;-80
2023/04/24 12:05:22;;;;;;;3.85;2.40;;;;;;;;;;5049989;28;20025;-81
2023/04/24 12:07:48;;;;;;;3.28;2.45;;;;;;;;;;5050720;28;20016;-79
2023/04/24 12:10:14;;;;;;;4.03;2.45;;;;;;;;;;5052911;28;20033;-80
2023/04/24 12:12:40;;;;;;;2.03;1.83;;;;;;;;;;5060924;28;20021;-79
2023/04/24 12:15:09;;;;;;;2.80;2.25;;;;;;;;;;5059484;28;20484;-80
2023/04/24 12:17:36;;;;;;;5.45;2.40;;;;;;;;;;5065173;28;20116;-81
2023/04/24 12:20:07;;;;;;;2.53;1.88;;;;;;;;;;5056997;28;20024;-80
2023/04/24 12:22:55;;;;;;;2.65;1.88;;;;;;;;;;5056437;28;20056;-79
2023/04/24 12:25:23;;;;;;;2.70;1.70;;;;;;;;;;5053027;28;20490;-79
2023/04/24 12:28:04;;;;;;;2.75;1.75;;;;;;;;;;5062506;28;20077;-79
2023/04/24 12:30:31;;;;;;;3.20;2.20;;;;;;;;;;5051328;28;20673;-79
2023/04/24 12:32:58;;;;;;;2.90;1.90;;;;;;;;;;5056969;28;20419;-82
2023/04/24 12:35:25;;;;;;;2.67;1.80;;;;;;;;;;5056785;28;20032;-80
2023/04/24 12:37:51;;;;;;;4.40;2.13;;;;;;;;;;5051260;28;20040;-80
2023/04/24 12:40:18;;;;;;;4.28;2.47;;;;;;;;;;5055070;28;20028;-80
2023/04/24 12:42:50;;;;;;;3.08;2.10;;;;;;;;;;5050545;28;20077;-79
2023/04/24 12:45:18;;;;;;;3.30;2.33;;;;;;;;;;5052668;28;20020;-78
2023/04/24 12:47:44;;;;;;;3.80;2.95;;;;;;;;;;5054204;28;20027;-79
2023/04/24 12:50:15;;;;;;;3.38;2.40;;;;;;;;;;5056873;28;20033;-78
2023/04/24 12:52:41;;;;;;;4.22;3.22;;;;;;;;;;5056655;28;20369;-84
2023/04/24 12:55:07;;;;;;;2.72;1.88;;;;;;;;;;5059618;28;20414;-81
2023/04/24 12:57:34;;;;;;;3.03;2.15;;;;;;;;;;5050190;28;20040;-80
2023/04/24 13:00:00;;;;;;;3.92;2.30;;;;;;;;;;5053366;28;20024;-83
2023/04/24 13:02:31;;;;;;;3.33;2.10;;;;;;;;;;5052681;28;20480;-81
2023/04/24 13:05:00;;;;;;;3.80;1.77;;;;;;;;;;5054960;28;20021;-84
2023/04/24 13:07:26;;;;;;;4.45;2.30;;;;;;;;;;5056341;28;20059;-82
2023/04/24 13:09:51;;;;;;;4.35;2.17;;;;;;;;;;5061295;28;20076;-80
2023/04/24 13:12:17;;;;;;;3.90;2.28;;;;;;;;;;5049549;28;20024;-81
2023/04/24 13:14:43;;;;;;;5.75;2.97;;;;;;;;;;5044044;28;20087;-81
2023/04/24 13:17:09;;;;;;;3.70;2.58;;;;;;;;;;5048213;28;20075;-80
2023/04/24 13:19:42;;;;;;;3.03;2.20;;;;;;;;;;5051906;28;20017;-80
2023/04/24 13:22:10;;;;;;;5.82;2.58;;;;;;;;;;5058266;28;20040;-80
2023/04/24 13:24:36;;;;;;;3.83;2.72;;;;;;;;;;5063324;28;20514;-80
2023/04/24 13:27:02;;;;;;;4.00;2.13;;;;;;;;;;5055686;28;20021;-83
2023/04/24 13:29:27;;;;;;;3.42;2.33;;;;;;;;;;5062023;28;20060;-82
2023/04/24 13:31:57;;;;;;;2.28;2.05;;;;;;;;;;5057547;28;20425;-81
2023/04/24 13:34:24;;;;;;;3.85;2.22;;;;;;;;;;5055254;28;20079;-82
2023/04/24 13:36:51;;;;;;;8.50;2.40;;;;;;;;;;5055831;28;20108;-80
2023/04/24 13:39:17;;;;;;;2.92;2.35;;;;;;;;;;5051793;28;20060;-82
2023/04/24 13:41:42;;;;;;;3.00;1.98;;;;;;;;;;5051710;28;20530;-80
2023/04/24 13:44:08;;;;;;;2.92;2.17;;;;;;;;;;5058995;28;20365;-81
2023/04/24 13:46:33;;;;;;;3.10;1.85;;;;;;;;;;5057063;28;20037;-82
2023/04/24 13:48:59;;;;;;;2.83;2.17;;;;;;;;;;5050610;28;20468;-80
2023/04/24 13:51:27;;;;;;;2.83;2.38;;;;;;;;;;5053350;28;20036;-81
2023/04/24 13:53:53;;;;;;;4.05;2.30;;;;;;;;;;5052460;28;20047;-80
2023/04/24 13:56:20;;;;;;;3.20;2.10;;;;;;;;;;5054097;28;20049;-80
2023/04/24 13:58:45;;;;;;;4.85;2.17;;;;;;;;;;5052279;28;20053;-79
2023/04/24 14:01:11;;;;;;;4.45;2.17;;;;;;;;;;5054051;28;20057;-80
2023/04/24 14:03:40;;;;;;;7.57;2.42;;;;;;;;;;5052668;28;20162;-80
2023/04/24 14:06:06;;;;;;;2.10;1.77;;;;;;;;;;5050505;28;20040;-79
2023/04/24 14:08:32;;;;;;;3.70;2.38;;;;;;;;;;5053951;28;20481;-81
2023/04/24 14:10:57;;;;;;;2.50;1.95;;;;;;;;;;5056378;28;20063;-81
2023/04/24 14:13:23;;;;;;;3.40;2.20;;;;;;;;;;5053955;28;20029;-80
2023/04/24 14:15:48;;;;;;;3.17;1.92;;;;;;;;;;5053580;28;20378;-80
2023/04/24 14:18:14;;;;;;;3.92;2.45;;;;;;;;;;5059895;28;20107;-79
2023/04/24 14:20:39;;;;;;;4.95;1.88;;;;;;;;;;5055375;28;20032;-83
2023/04/24 14:23:05;;;;;;;2.47;2.03;;;;;;;;;;5049071;28;20056;-83
2023/04/24 14:25:31;;;;;;;3.15;1.85;;;;;;;;;;5054152;28;20031;-84
2023/04/24 14:27:56;;;;;;;4.65;2.13;;;;;;;;;;5056360;28;20051;-83
2023/04/24 14:30:22;;;;;;;2.20;1.80;;;;;;;;;;5052137;28;20031;-81
2023/04/24 14:32:48;;;;;;;2.63;1.80;;;;;;;;;;5058126;28;20029;-82
2023/04/24 14:35:14;;;;;;;4.15;1.98;;;;;;;;;;5044735;28;20035;-80
2023/04/24 14:37:41;;;;;;;2.95;2.03;;;;;;;;;;5056059;28;20100;-81
2023/04/24 14:40:07;;;;;;;3.40;1.90;;;;;;;;;;5052331;28;20454;-82
2023/04/24 14:42:33;;;;;;;2.45;1.80;;;;;;;;;;5058880;28;20388;-80
2023/04/24 14:44:59;;;;;;;2.30;1.90;;;;;;;;;;5062900;28;20095;-79
2023/04/24 14:47:25;;;;;;;2.28;1.83;;;;;;;;;;5050031;28;20021;-80
2023/04/24 14:49:50;;;;;;;3.05;1.80;;;;;;;;;;5057315;28;20032;-81
2023/04/24 14:52:16;;;;;;;2.42;1.95;;;;;;;;;;5054062;28;20476;-82
2023/04/24 14:54:42;;;;;;;2.83;1.80;;;;;;;;;;5057973;28;20078;-80
2023/04/24 14:57:08;;;;;;;5.30;2.40;;;;;;;;;;5056948;28;20048;-80
2023/04/24 14:59:34;;;;;;;3.05;1.77;;;;;;;;;;5054380;28;20041;-83
2023/04/24 15:01:59;;;;;;;4.05;2.53;;;;;;;;;;5053414;28;20050;-81
2023/04/24 15:04:25;;;;;;;4.53;2.63;;;;;;;;;;5059752;28;20036;-84
2023/04/24 15:06:51;;;;;;;2.83;1.83;;;;;;;;;;5061453;28;20500;-81
2023/04/24 15:09:17;;;;;;;3.72;1.98;;;;;;;;;;5060565;28;20021;-81
2023/04/24 15:11:42;;;;;;;2.72;1.73;;;;;;;;;;5060467;28;20032;-82
2023/04/24 15:14:08;;;;;;;2.65;1.95;;;;;;;;;;5060643;28;20119;-81
2023/04/24 15:16:33;;;;;;;3.17;2.40;;;;;;;;;;5057492;28;20361;-84
2023/04/24 15:18:58;;;;;;;4.90;2.00;;;;;;;;;;5060352;28;20055;-81
2023/04/24 15:21:24;;;;;;;4.32;2.90;;;;;;;;;;5057802;28;20437;-82
2023/04/24 15:23:50;;;;;;;4.28;2.60;;;;;;;;;;5063976;28;20488;-80
2023/04/24 15:26:15;;;;;;;4.28;2.17;;;;;;;;;;5064875;28;20389;-83
2023/04/24 15:28:40;;;;;;;3.75;2.35;;;;;;;;;;5056287;28;20480;-83
2023/04/24 15:31:06;;;;;;;3.05;1.80;;;;;;;;;;5058328;28;20403;-83
2023/04/24 15:33:31;;;;;;;2.83;1.95;;;;;;;;;;5063151;28;20029;-82
2023/04/24 15:35:57;;;;;;;6.15;2.10;;;;;;;;;;5046419;28;20043;-79
2023/04/24 15:38:22;;;;;;;4.82;2.15;;;;;;;;;;5050525;28;20021;-80
2023/04/24 15:40:48;;;;;;;4.03;1.85;;;;;;;;;;5049748;28;20032;-79
2023/04/24 15:43:14;;;;;;;2.83;2.05;;;;;;;;;;5063807;28;20029;-80
2023/04/24 15:45:39;;;;;;;2.78;2.20;;;;;;;;;;5060440;28;20395;-82
2023/04/24 15:48:05;;;;;;;2.83;1.80;;;;;;;;;;5054934;28;20054;-79
2023/04/24 15:50:31;;;;;;;3.30;2.22;;;;;;;;;;5050263;28;20024;-79
2023/04/24 15:52:56;;;;;;;2.33;1.75;;;;;;;;;;5052358;28;20492;-79
2023/04/24 15:55:22;;;;;;;3.30;2.40;;;;;;;;;;5055580;28;20025;-80
2023/04/24 15:57:47;;;;;;;4.57;2.20;;;;;;;;;;5056683;28;20105;-78
2023/04/24 16:00:13;;;;;;;3.13;2.47;;;;;;;;;;5053899;28;20362;-79
2023/04/24 16:02:39;;;;;;;4.63;2.38;;;;;;;;;;5054136;28;20106;-80
2023/04/24 16:05:06;;;;;;;3.13;2.10;;;;;;;;;;5050504;28;20021;-77
2023/04/24 16:07:32;;;;;;;4.25;2.28;;;;;;;;;;5054354;28;20028;-81
2023/04/24 16:09:58;;;;;;;3.10;2.22;;;;;;;;;;5055749;28;20044;-82
2023/04/24 16:12:26;;;;;;;3.90;2.17;;;;;;;;;;5063846;28;20032;-85
2023/04/24 16:14:52;;;;;;;5.03;2.63;;;;;;;;;;5062676;28;20469;-85
2023/04/24 16:17:18;;;;;;;2.60;1.65;;;;;;;;;;5058013;28;20020;-84
2023/04/24 16:19:43;;;;;;;4.22;2.95;;;;;;;;;;5059095;28;20066;-85
2023/04/24 16:22:09;;;;;;;3.10;2.40;;;;;;;;;;5061543;28;20025;-86
2023/04/24 16:24:35;;;;;;;8.57;4.05;;;;;;;;;;5048164;28;20024;-86
2023/04/24 16:27:00;;;;;;;5.97;3.67;;;;;;;;;;5055344;28;20491;-87
2023/04/24 16:29:27;;;;;;;8.18;4.03;;;;;;;;;;5061553;28;20032;-84
2023/04/24 16:31:52;;;;;;;8.50;4.35;;;;;;;;;;5061417;28;20125;-88
2023/04/24 16:34:18;;;;;;;6.38;4.03;;;;;;;;;;5062955;28;20048;-83
2023/04/24 16:36:44;;;;;;;8.00;4.07;;;;;;;;;;5059880;28;20403;-84
2023/04/24 16:39:11;;;;;;;6.43;3.83;;;;;;;;;;5060531;28;20082;-86
2023/04/24 16:41:36;;;;;;;10.48;4.68;;;;;;;;;;5054682;28;20043;-87
2023/04/24 16:44:02;;;;;;;6.47;3.70;;;;;;;;;;5057213;28;20025;-85
2023/04/24 16:46:27;;;;;;;7.90;4.45;;;;;;;;;;5060083;28;20119;-86
2023/04/24 16:48:56;;;;;;;6.75;4.57;;;;;;;;;;5060537;28;20086;-88
2023/04/24 16:51:22;;;;;;;8.13;3.95;;;;;;;;;;5059502;28;20032;-86
2023/04/24 16:53:48;;;;;;;8.85;4.45;;;;;;;;;;5060203;28;20107;-88
2023/04/24 16:56:14;;;;;;;5.80;3.67;;;;;;;;;;5058996;28;20027;-81
2023/04/24 16:58:40;;;;;;;5.95;3.40;;;;;;;;;;5051222;28;20032;-81
2023/04/24 17:01:05;;;;;;;6.78;4.03;;;;;;;;;;5054440;28;20062;-82
2023/04/24 17:03:31;;;;;;;7.88;4.65;;;;;;;;;;5059347;28;20051;-82
2023/04/24 17:05:57;;;;;;;7.28;3.67;;;;;;;;;;5052045;28;20029;-82
2023/04/24 17:08:23;;;;;;;4.47;3.20;;;;;;;;;;5057694;28;20496;-82
2023/04/24 17:10:48;;;;;;;5.22;2.90;;;;;;;;;;5049643;28;20029;-82
2023/04/24 17:13:14;;;;;;;5.32;3.40;;;;;;;;;;5043568;28;20039;-81
2023/04/24 17:15:41;;;;;;;5.82;3.65;;;;;;;;;;5050957;28;20693;-83
2023/04/24 17:18:06;;;;;;;7.00;3.90;;;;;;;;;;5061152;28;20059;-83
2023/04/24 17:20:32;;;;;;;10.50;6.30;;;;;;;;;;5061552;28;20041;-83
2023/04/24 17:22:58;;;;;;;7.93;4.88;;;;;;;;;;5052216;28;20017;-83
2023/04/24 17:25:24;;;;;;;8.13;4.88;;;;;;;;;;5052858;28;20033;-81
2023/04/24 17:27:49;;;;;;;12.38;4.85;;;;;;;;;;5060413;28;20471;-82
2023/04/24 17:30:16;;;;;;;5.75;3.47;;;;;;;;;;5049587;28;20417;-83
2023/04/24 17:32:42;;;;;;;5.70;3.50;;;;;;;;;;5053279;28;20037;-83
2023/04/24 17:35:08;;;;;;;5.65;4.22;;;;;;;;;;5054359;28;20035;-83
2023/04/24 17:37:34;;;;;;;5.10;3.28;;;;;;;;;;5057917;28;20098;-82
2023/04/24 17:40:00;;;;;;;4.75;3.47;;;;;;;;;;5056308;28;20021;-83
2023/04/24 17:42:26;;;;;;;6.93;4.47;;;;;;;;;;5055515;28;20039;-82
2023/04/24 17:44:51;;;;;;;6.22;3.17;;;;;;;;;;5051089;28;20059;-82
2023/04/24 17:47:18;;;;;;;6.50;3.55;;;;;;;;;;5056891;28;20465;-81
2023/04/24 17:49:44;;;;;;;4.55;3.05;;;;;;;;;;5053035;28;20101;-82
2023/04/24 17:52:10;;;;;;;5.35;3.17;;;;;;;;;;5050760;28;20120;-82
2023/04/24 17:54:36;;;;;;;7.68;4.35;;;;;;;;;;5051351;28;20114;-81
2023/04/24 17:57:02;;;;;;;4.78;3.50;;;;;;;;;;5054871;28;20071;-82
2023/04/24 17:59:27;;;;;;;10.10;3.97;;;;;;;;;;5052895;28;20033;-81
2023/04/24 18:01:53;;;;;;;6.10;3.67;;;;;;;;;;5050191;28;20482;-82
2023/04/24 18:04:18;;;;;;;6.05;3.42;;;;;;;;;;5047711;28;20476;-81
2023/04/24 18:06:44;;;;;;;3.63;2.58;;;;;;;;;;5067373;28;20033;-82
2023/04/24 18:09:10;;;;;;;5.03;3.17;;;;;;;;;;5066093;28;20032;-81
2023/04/24 18:11:36;;;;;;;2.95;2.35;;;;;;;;;;5047149;28;20028;-81
2023/04/24 18:14:02;;;;;;;4.38;3.13;;;;;;;;;;5054401;28;20037;-83
2023/04/24 18:16:27;;;;;;;2.90;1.98;;;;;;;;;;5059664;28;20063;-85
2023/04/24 18:18:55;;;;;;;6.78;3.58;;;;;;;;;;5064855;28;20077;-84
2023/04/24 18:21:22;;;;;;;4.55;2.42;;;;;;;;;;5059593;28;20497;-85
2023/04/24 18:23:48;;;;;;;5.68;3.03;;;;;;;;;;5055269;28;20033;-83
2023/04/24 18:26:17;;;;;;;4.55;3.30;;;;;;;;;;5063809;28;20078;-84
2023/04/24 18:28:43;;;;;;;3.03;2.50;;;;;;;;;;5065946;28;20085;-85
2023/04/24 18:31:09;;;;;;;3.30;2.13;;;;;;;;;;5062013;28;20033;-85
2023/04/24 18:33:34;;;;;;;6.15;3.00;;;;;;;;;;5059384;28;20025;-84
2023/04/24 18:36:02;;;;;;;7.60;4.47;;;;;;;;;;5061571;28;20488;-83
2023/04/24 18:38:27;;;;;;;7.70;4.45;;;;;;;;;;5055695;28;20021;-83
2023/04/24 18:40:53;;;;;;;7.03;4.53;;;;;;;;;;5055704;28;20047;-82
2023/04/24 18:43:18;;;;;;;7.95;4.72;;;;;;;;;;5061590;28;20028;-82
2023/04/24 18:45:45;;;;;;;5.65;3.63;;;;;;;;;;5054853;28;20025;-83
2023/04/24 18:48:10;;;;;;;4.85;3.05;;;;;;;;;;5062936;28;20059;-83
2023/04/24 18:50:37;;;;;;;4.70;2.63;;;;;;;;;;5059134;28;20480;-82
2023/04/24 18:53:03;;;;;;;5.53;2.60;;;;;;;;;;5051268;28;20036;-83
2023/04/24 18:55:29;;;;;;;4.15;1.95;;;;;;;;;;5060156;28;20025;-84
2023/04/24 18:57:54;;;;;;;2.28;1.45;;;;;;;;;;5053257;28;20060;-84
2023/04/24 19:00:20;;;;;;;2.17;1.30;;;;;;;;;;5052554;28;20021;-85
2023/04/24 19:02:46;;;;;;;2.67;2.03;;;;;;;;;;5062344;28;20043;-84
2023/04/24 19:05:14;;;;;;;3.53;1.77;;;;;;;;;;5065265;28;20029;-85
2023/04/24 19:07:42;;;;;;;1.73;1.10;;;;;;;;;;5052142;28;20085;-83
2023/04/24 19:10:15;;;;;;;1.80;1.00;;;;;;;;;;5064147;28;20028;-84
2023/04/24 19:12:55;;;;;;;2.65;1.90;;;;;;;;;;5055294;28;20059;-84
2023/04/24 19:15:23;;;;;;;1.88;1.52;;;;;;;;;;5056621;28;20187;-83
2023/04/24 19:17:50;;;;;;;3.35;2.13;;;;;;;;;;5056809;28;20031;-83
2023/04/24 19:20:24;;;;;;;2.10;1.50;;;;;;;;;;5063690;28;20547;-83
2023/04/24 19:23:21;;;;;;;3.55;1.83;;;;;;;;;;5062334;28;20024;-83
2023/04/24 19:30:12;;;;;;;3.63;2.83;;;;;;;;;;5042686;28;20406;-85
2023/04/24 19:32:44;;;;;;;3.60;2.25;;;;;;;;;;5049624;28;20119;-82
2023/04/24 19:35:10;;;;;;;8.13;3.42;;;;;;;;;;5051764;28;20048;-83
2023/04/24 19:38:13;;;;;;;4.53;2.47;;;;;;;;;;5061184;28;20029;-84
2023/04/24 19:40:39;;;;;;;4.38;2.63;;;;;;;;;;5059582;28;20090;-82
2023/04/24 19:43:04;;;;;;;4.65;2.92;;;;;;;;;;5063571;28;20476;-83
2023/04/24 19:45:49;;;;;;;5.78;3.58;;;;;;;;;;5061886;28;20040;-84